Acton, CA

10:43 AM PDT on October 23, 2014 (GMT -0700)
Bridle Path | Change Station
CLOSE
Current Station
Personal Weather Station
Location: Acton, CA
Elevation: 2920 ft
Nearby Weather Stations

Elev 2920 ft 34.48 °N, 118.17 °W | Updated 3 seconds ago

Clear
Clear
79.8 °F
Feels Like 78 °F
N
2.0
Wind Variable Wind from SSW
Gusts 5.0 mph

Today
High -- | Low -- °F
--% Chance of Precip.
Yesterday
High -- | Low -- °F
Precip. -- in
7:05 AM 6:08 PM
Waning Crescent, 0% visible
Pressure 30.06 in
Visibility 10.0 miles
Clouds Clear
Heat Index 78 °F
Dew Point 26 °F
Humidity 14%
Rainfall 0.00 in
Snow Depth Not available.
UV 3 out of 12
Pollen 3.70 out of 12
Ozone Good
PM2.5 Good
Flu Activity Sporadic
METAR KPMD 231653Z 00000KT 10SM CLR 18/M01 A3011 RMK AO2 SLP180 T01781006

More Conditions Fewer Conditions

Pressure 30.06 in
Visibility 10.0 miles
Clouds Clear
Heat Index 78 °F
Dew Point 26 °F
Humidity 14%
Rainfall 0.00 in
Snow Depth Not available.
UV 3 out of 12
Pollen 3.70 out of 12
Ozone Good
PM2.5 Good
Flu Activity Sporadic
METAR KPMD 231653Z 00000KT 10SM CLR 18/M01 A3011 RMK AO2 SLP180 T01781006

More Conditions Fewer Conditions

10-Day Weather Forecast

Almanac

Astronomy

Oct. 23, 2014 Rise Set
Actual Time 7:05 AM PDT 6:08 PM PDT
Civil Twilight 6:39 AM PDT 6:34 PM PDT
Nautical Twilight 6:10 AM PDT 7:03 PM PDT
Astronomical Twilight 5:40 AM PDT 7:32 PM PDT
Moon 6:50 AM PDT 6:13 PM PDT
Length of Visible Light 11h 54m
Length of Day
11h 03m
Tomorrow will be 1m 59s shorter.
Waning Crescent, 0% of the Moon is Illuminated
Today
Waning Crescent
Oct 23
New
Oct 30
First Quarter
Nov 6
Full
Nov 14
Last Quarter

Today's Extremes

State Highs State Lows

Community

WunderPhotos

Upload Photos

1,764,322 photos uploaded!

WunderBlogs® & News

Nearby

Air Quality

  Air Quality AQ Index Pollutant
Yesterday Good
PM10
Yesterday Moderate
OZONE
Current Good
PM2.5
Current Good
OZONE
Thursday Moderate
PM10
Thursday Moderate
OZONE
Thursday Good
CO
Thursday Good
NO2

Snow Depth

Station Depth Elevation
Virginia Lakes Ridge 0 in 9200 ft
Leavitt Lake 1 in 9400 ft
Leavitt Meadows 0 in 7200 ft
Sonora Pass 0 in 8800 ft
Summit Meadow 1 in 9122 ft

Earthquake Activity

City Distance Mag. Time & Date
Solvang, California 112 miles 2.6 5:35 PM PDT
2014-10-22
Kettleman City, California 130 miles 2.5 9:08 AM PDT
2014-10-22
Minimum magnitude displayed is 2.5.

Coastal Water Temperatures

Place Temperature
No Stations Reporting

Nearby Weather Stations